createdAt,value
2023-03-14T00:00:33.103Z,1003.0
2023-03-14T00:15:23.263Z,1002.5
2023-03-14T00:30:23.311Z,1002.0
2023-03-14T00:45:23.238Z,1002.0
2023-03-14T01:00:23.477Z,1003.0
2023-03-14T01:15:23.402Z,1003.0
2023-03-14T01:30:23.537Z,1002.3
2023-03-14T01:45:23.555Z,1002.0
2023-03-14T02:00:23.581Z,1002.0
2023-03-14T02:15:23.586Z,1002.0
2023-03-14T02:30:23.697Z,1002.0
2023-03-14T02:45:23.794Z,1002.0
2023-03-14T03:00:23.906Z,1001.0
2023-03-14T03:15:23.684Z,1001.0
2023-03-14T03:30:23.844Z,1001.0
2023-03-14T03:45:23.738Z,1001.0
2023-03-14T04:00:24.048Z,1001.0
2023-03-14T04:15:24.063Z,1001.0
2023-03-14T04:30:23.850Z,1001.0
2023-03-14T04:45:24.052Z,1000.0
2023-03-14T05:00:33.034Z,1000.0
2023-03-14T05:15:23.326Z,1000.0
2023-03-14T05:30:23.206Z,1000.0
2023-03-14T05:45:23.410Z,999.3
2023-03-14T06:00:23.381Z,999.0
2023-03-14T06:15:23.655Z,999.0
2023-03-14T06:30:23.811Z,999.0
2023-03-14T06:45:23.133Z,999.0
2023-03-14T07:00:23.356Z,999.0
2023-03-14T07:15:23.247Z,999.0
2023-03-14T07:30:23.383Z,999.0
2023-03-14T07:45:24.850Z,999.0
2023-03-14T08:00:23.617Z,1000.0
2023-03-14T08:15:23.746Z,1000.0
2023-03-14T08:30:23.740Z,1000.0
2023-03-14T08:45:23.716Z,1000.0
2023-03-14T09:00:23.908Z,1000.0
2023-03-14T09:15:23.859Z,1000.0
2023-03-14T09:30:23.860Z,1000.0
2023-03-14T09:45:23.830Z,1000.0
2023-03-14T10:00:23.830Z,1000.3
2023-03-14T10:15:33.079Z,1000.0
2023-03-14T10:30:33.124Z,1000.0
2023-03-14T10:45:33.130Z,1000.0
2023-03-14T11:00:33.510Z,1000.0
2023-03-14T11:15:23.798Z,1000.5
2023-03-14T11:30:23.680Z,1001.0
2023-03-14T11:45:23.729Z,1001.0
2023-03-14T12:00:24.106Z,1001.0
2023-03-14T12:15:24.262Z,1001.0
2023-03-14T12:30:23.872Z,1002.0
2023-03-14T12:45:32.950Z,1002.0
2023-03-14T13:00:32.625Z,1003.0
2023-03-14T13:15:23.099Z,1003.7
2023-03-14T13:30:23.110Z,1004.0
2023-03-14T13:45:22.926Z,1004.7
2023-03-14T14:00:22.947Z,1005.0
2023-03-14T14:15:23.391Z,1007.0
2023-03-14T14:30:23.603Z,1007.0
2023-03-14T14:45:23.486Z,1007.7
2023-03-14T15:00:23.537Z,1008.0
2023-03-14T15:15:23.269Z,1008.0
2023-03-14T15:30:23.350Z,1008.0
2023-03-14T15:45:23.815Z,1008.0
2023-03-14T16:00:23.479Z,1008.0
2023-03-14T16:15:23.410Z,1008.0
2023-03-14T16:30:23.398Z,1009.0
2023-03-14T16:45:23.777Z,1009.0
2023-03-14T17:00:23.718Z,1009.0
2023-03-14T17:15:23.726Z,1009.0
2023-03-14T17:30:23.682Z,1010.0
2023-03-14T17:45:32.959Z,1010.0
2023-03-14T18:00:33.072Z,1011.0
2023-03-14T18:15:23.219Z,1011.0
2023-03-14T18:30:23.116Z,1011.0
2023-03-14T18:45:23.198Z,1011.3
2023-03-14T19:00:23.227Z,1011.7
2023-03-14T19:15:23.364Z,1011.7
2023-03-14T19:30:23.354Z,1012.0
2023-03-14T19:45:23.407Z,1012.0
2023-03-14T20:00:23.328Z,1012.0
2023-03-14T20:15:23.581Z,1012.0
2023-03-14T20:30:23.391Z,1012.0
2023-03-14T20:45:23.670Z,1012.0
2023-03-14T21:00:23.553Z,1012.7
2023-03-14T21:15:23.640Z,1013.0
2023-03-14T21:30:23.577Z,1013.0
2023-03-14T21:45:23.828Z,1013.0
2023-03-14T22:00:23.720Z,1013.0
2023-03-14T22:15:23.869Z,1013.0
2023-03-14T22:30:23.711Z,1013.0
2023-03-14T22:45:23.958Z,1013.0
2023-03-14T23:15:23.494Z,1014.0
2023-03-14T23:30:23.815Z,1015.0
2023-03-14T23:45:23.889Z,1015.0
